Malczyce, Poland
Current Conditions -  °F | °C
As of 6:00 PM on Monday 22 Dec 2014 (Local Time) from EPWR Reporting Station
Broken Clouds Broken Clouds  
Wind Chill: 54°   Ceiling: 2600
Heat Index: 54°   Visibility: 6mi
Dew Point: 43°   Wind: 26mph
Humidity: 67%   Direction: 280°W
Pressure: 29.83"   Gusts: 38mph
Location:  51.22°N, 16.48°E
Report Text: EPWR 221600Z 28023G33KT 240V300 9999 BKN026 12/06 Q1010
Loading
Personal Weather Stations






























Interactive Weather Map New forecast layout! Learn more

10-Day Weather Forecast

Advertisements
Track Severe Weather on mobile